Time,TemperatureF,DewpointF,PressureIn,WindDirection,WindDirectionDegrees,WindSpeedMPH,WindSpeedGustMPH,Humidity,HourlyPrecipIn,Conditions,Clouds,dailyrainin,SolarRadiationWatts/m^2,SoftwareType,DateUTC
2013-05-15 00:02:00,30.0,26.0,-100.00,NNW,345,2.0,5.0,86,0.00,,,0.00,0.000000,,2013-05-15 06:02:00,
2013-05-15 00:42:00,27.0,25.0,-100.00,North,358,2.0,4.0,91,0.00,,,0.00,0.000000,,2013-05-15 06:42:00,
2013-05-15 00:52:00,27.0,25.0,-100.00,North,358,2.0,4.0,91,0.00,,,0.00,0.000000,,2013-05-15 06:52:00,
2013-05-15 01:01:00,27.0,25.0,-100.00,North,358,2.0,4.0,91,0.00,,,0.00,0.000000,,2013-05-15 07:01:00,
2013-05-15 01:32:00,26.0,25.0,-100.00,NNW,329,2.0,3.0,94,-99.99,,,0.00,0.000000,,2013-05-15 07:32:00,
2013-05-15 01:42:00,26.0,25.0,-100.00,NNW,329,2.0,3.0,94,-99.99,,,0.00,0.000000,,2013-05-15 07:42:00,
2013-05-15 01:52:00,26.0,25.0,-100.00,NNW,329,2.0,3.0,94,-99.99,,,0.00,0.000000,,2013-05-15 07:52:00,
2013-05-15 02:02:00,26.0,25.0,-100.00,NNW,329,2.0,3.0,94,-99.99,,,0.00,0.000000,,2013-05-15 08:02:00,
2013-05-15 02:42:00,26.0,25.0,-100.00,NNW,344,2.0,3.0,95,-99.99,,,0.00,0.000000,,2013-05-15 08:42:00,
2013-05-15 02:53:00,26.0,25.0,-100.00,NNW,344,2.0,3.0,95,-99.99,,,0.00,0.000000,,2013-05-15 08:53:00,
2013-05-15 03:01:00,26.0,25.0,-100.00,NNW,344,2.0,3.0,95,-99.99,,,0.00,0.000000,,2013-05-15 09:01:00,
2013-05-15 03:11:00,26.0,25.0,-100.00,NNW,344,2.0,3.0,95,-99.99,,,0.00,0.000000,,2013-05-15 09:11:00,
2013-05-15 03:33:00,26.0,25.0,-100.00,NNW,329,4.0,5.0,95,0.00,,,0.00,0.000000,,2013-05-15 09:33:00,
2013-05-15 03:42:00,26.0,25.0,-100.00,NNW,329,4.0,5.0,95,0.00,,,0.00,0.000000,,2013-05-15 09:42:00,
2013-05-15 03:53:00,26.0,25.0,-100.00,NNW,329,4.0,5.0,95,0.00,,,0.00,0.000000,,2013-05-15 09:53:00,
2013-05-15 04:02:00,26.0,25.0,-100.00,NNW,329,4.0,5.0,95,0.00,,,0.00,0.000000,,2013-05-15 10:02:00,
2013-05-15 04:12:00,26.0,25.0,-100.00,NNW,329,4.0,5.0,95,0.00,,,0.00,0.000000,,2013-05-15 10:12:00,
2013-05-15 04:32:00,25.0,24.0,-100.00,NNE,15,1.0,5.0,94,0.00,,,-99.99,0.000000,,2013-05-15 10:32:00,
2013-05-15 04:42:00,25.0,24.0,-100.00,NNE,15,1.0,5.0,94,0.00,,,-99.99,0.000000,,2013-05-15 10:42:00,
2013-05-15 04:52:00,25.0,24.0,-100.00,NNE,15,1.0,5.0,94,0.00,,,-99.99,0.000000,,2013-05-15 10:52:00,
2013-05-15 05:14:00,25.0,24.0,-100.00,NNE,15,1.0,5.0,94,0.00,,,-99.99,0.000000,,2013-05-15 11:14:00,
2013-05-15 05:38:00,24.0,23.0,-100.00,North,9,2.0,2.0,95,0.00,,,0.00,0.000000,,2013-05-15 11:38:00,
2013-05-15 05:50:00,24.0,23.0,-100.00,North,9,2.0,2.0,95,0.00,,,0.00,0.000000,,2013-05-15 11:50:00,
2013-05-15 05:57:00,24.0,23.0,-100.00,North,9,2.0,2.0,95,0.00,,,0.00,0.000000,,2013-05-15 11:57:00,
2013-05-15 06:12:00,24.0,23.0,-100.00,North,9,2.0,2.0,95,0.00,,,0.00,0.000000,,2013-05-15 12:12:00,
2013-05-15 06:49:00,23.0,22.0,-100.00,NNE,17,1.0,2.0,95,-99.99,,,0.00,4.000000,,2013-05-15 12:49:00,
2013-05-15 06:56:00,23.0,22.0,-100.00,NNE,17,1.0,2.0,95,-99.99,,,0.00,4.000000,,2013-05-15 12:56:00,
2013-05-15 07:05:00,23.0,22.0,-100.00,NNE,17,1.0,2.0,95,-99.99,,,0.00,4.000000,,2013-05-15 13:05:00,
2013-05-15 07:48:00,25.0,24.0,-100.00,East,93,0.0,3.0,95,-99.99,,,0.00,28.000000,,2013-05-15 13:48:00,
2013-05-15 07:57:00,25.0,24.0,-100.00,East,93,0.0,3.0,95,-99.99,,,0.00,28.000000,,2013-05-15 13:57:00,
2013-05-15 08:03:00,25.0,24.0,-100.00,East,93,0.0,3.0,95,-99.99,,,0.00,28.000000,,2013-05-15 14:03:00,
2013-05-15 08:50:00,39.0,35.0,-100.00,ENE,73,0.0,3.0,84,0.00,,,0.00,235.000000,,2013-05-15 14:50:00,
2013-05-15 08:56:00,39.0,35.0,-100.00,ENE,73,0.0,3.0,84,0.00,,,0.00,235.000000,,2013-05-15 14:56:00,
2013-05-15 09:05:00,39.0,35.0,-100.00,ENE,73,0.0,3.0,84,0.00,,,0.00,235.000000,,2013-05-15 15:05:00,
2013-05-15 09:12:00,39.0,35.0,-100.00,ENE,73,0.0,3.0,84,0.00,,,0.00,235.000000,,2013-05-15 15:12:00,
2013-05-15 09:48:00,47.0,33.0,-100.00,South,181,3.0,4.0,58,0.00,,,0.00,384.000000,,2013-05-15 15:48:00,
2013-05-15 09:58:00,47.0,33.0,-100.00,South,181,3.0,4.0,58,0.00,,,0.00,384.000000,,2013-05-15 15:58:00,
2013-05-15 10:05:00,47.0,33.0,-100.00,South,181,3.0,4.0,58,0.00,,,0.00,384.000000,,2013-05-15 16:05:00,
2013-05-15 10:50:00,49.0,29.0,-100.00,SSE,160,4.0,6.0,45,0.00,,,0.00,437.000000,,2013-05-15 16:50:00,
2013-05-15 10:56:00,49.0,29.0,-100.00,SSE,160,4.0,6.0,45,0.00,,,0.00,437.000000,,2013-05-15 16:56:00,
2013-05-15 11:05:00,49.0,29.0,-100.00,SSE,160,4.0,6.0,45,0.00,,,0.00,437.000000,,2013-05-15 17:05:00,
2013-05-15 11:48:00,53.0,31.0,-100.00,SSE,166,4.0,7.0,42,0.00,,,0.00,619.000000,,2013-05-15 17:48:00,
2013-05-15 11:57:00,53.0,31.0,-100.00,SSE,166,4.0,7.0,42,0.00,,,0.00,619.000000,,2013-05-15 17:57:00,
2013-05-15 12:03:00,53.0,31.0,-100.00,SSE,166,4.0,7.0,42,0.00,,,0.00,619.000000,,2013-05-15 18:03:00,
2013-05-15 12:12:00,53.0,31.0,-100.00,SSE,166,4.0,7.0,42,0.00,,,0.00,619.000000,,2013-05-15 18:12:00,
2013-05-15 12:48:00,56.0,29.0,-100.00,South,177,5.0,7.0,35,0.00,,,0.00,834.000000,,2013-05-15 18:48:00,
2013-05-15 12:55:00,56.0,29.0,-100.00,South,177,5.0,7.0,35,0.00,,,0.00,834.000000,,2013-05-15 18:55:00,
2013-05-15 13:06:00,56.0,29.0,-100.00,South,177,5.0,7.0,35,0.00,,,0.00,834.000000,,2013-05-15 19:06:00,
2013-05-15 13:13:00,56.0,29.0,-100.00,South,177,5.0,7.0,35,0.00,,,0.00,834.000000,,2013-05-15 19:13:00,
2013-05-15 13:56:00,58.0,28.0,-100.00,SE,145,5.0,7.0,31,0.00,,,-99.99,892.000000,,2013-05-15 19:56:00,
2013-05-15 14:03:00,58.0,28.0,-100.00,SE,145,5.0,7.0,31,0.00,,,-99.99,892.000000,,2013-05-15 20:03:00,
2013-05-15 14:12:00,58.0,28.0,-100.00,SE,145,5.0,7.0,31,0.00,,,-99.99,892.000000,,2013-05-15 20:12:00,
2013-05-15 14:47:00,59.0,28.0,-100.00,South,184,5.0,8.0,31,0.00,,,0.00,982.000000,,2013-05-15 20:47:00,
2013-05-15 14:54:00,59.0,28.0,-100.00,South,184,5.0,8.0,31,0.00,,,0.00,982.000000,,2013-05-15 20:54:00,
2013-05-15 15:03:00,59.0,28.0,-100.00,South,184,5.0,8.0,31,0.00,,,0.00,982.000000,,2013-05-15 21:03:00,
2013-05-15 15:13:00,59.0,28.0,-100.00,South,184,5.0,8.0,31,0.00,,,0.00,982.000000,,2013-05-15 21:13:00,
2013-05-15 15:15:00,61.0,29.0,-100.00,SSW,205,6.0,14.0,29,0.00,,,0.00,764.000000,,2013-05-15 21:15:00,
2013-05-15 15:52:00,61.0,29.0,-100.00,SSW,205,6.0,14.0,29,0.00,,,0.00,764.000000,,2013-05-15 21:52:00,
2013-05-15 15:59:00,61.0,29.0,-100.00,SSW,205,6.0,14.0,29,0.00,,,0.00,764.000000,,2013-05-15 21:59:00,
2013-05-15 16:06:00,61.0,29.0,-100.00,SSW,205,6.0,14.0,29,0.00,,,0.00,764.000000,,2013-05-15 22:06:00,
2013-05-15 16:41:00,61.0,31.0,-100.00,NNW,339,4.0,9.0,32,0.00,,,0.00,508.000000,,2013-05-15 22:41:00,
2013-05-15 16:51:00,61.0,31.0,-100.00,NNW,339,4.0,9.0,32,0.00,,,0.00,508.000000,,2013-05-15 22:51:00,
2013-05-15 17:50:00,61.0,31.0,-100.00,NNW,347,4.0,9.0,32,0.00,,,0.00,402.000000,,2013-05-15 23:50:00,
2013-05-15 17:58:00,61.0,31.0,-100.00,NNW,347,4.0,9.0,32,0.00,,,0.00,402.000000,,2013-05-15 23:58:00,
2013-05-15 18:03:00,61.0,31.0,-100.00,NNW,347,4.0,9.0,32,0.00,,,0.00,402.000000,,2013-05-16 00:03:00,
2013-05-15 18:51:00,60.0,30.0,-100.00,WNW,302,3.0,9.0,32,0.00,,,0.00,234.000000,,2013-05-16 00:51:00,
2013-05-15 18:57:00,60.0,30.0,-100.00,WNW,302,3.0,9.0,32,0.00,,,0.00,234.000000,,2013-05-16 00:57:00,
2013-05-15 19:13:00,60.0,30.0,-100.00,WNW,302,3.0,9.0,32,0.00,,,0.00,234.000000,,2013-05-16 01:13:00,
2013-05-15 19:49:00,59.0,29.0,-100.00,NW,318,2.0,6.0,32,0.00,,,0.00,153.000000,,2013-05-16 01:49:00,
2013-05-15 20:04:00,59.0,29.0,-100.00,NW,318,2.0,6.0,32,0.00,,,0.00,153.000000,,2013-05-16 02:04:00,
2013-05-15 20:13:00,59.0,29.0,-100.00,NW,318,2.0,6.0,32,0.00,,,0.00,153.000000,,2013-05-16 02:13:00,
2013-05-15 21:46:00,51.0,35.0,-100.00,ENE,76,1.0,7.0,55,0.00,,,0.00,27.000000,,2013-05-16 03:46:00,
2013-05-15 21:56:00,51.0,35.0,-100.00,ENE,76,1.0,7.0,55,0.00,,,0.00,27.000000,,2013-05-16 03:56:00,
2013-05-15 22:02:00,51.0,35.0,-100.00,ENE,76,1.0,7.0,55,0.00,,,0.00,27.000000,,2013-05-16 04:02:00,
2013-05-15 22:12:00,51.0,35.0,-100.00,ENE,76,1.0,7.0,55,0.00,,,0.00,27.000000,,2013-05-16 04:12:00,
2013-05-15 22:42:00,45.0,37.0,-100.00,NNW,344,2.0,4.0,74,0.00,,,0.00,0.000000,,2013-05-16 04:42:00,
2013-05-15 22:53:00,45.0,37.0,-100.00,NNW,344,2.0,4.0,74,0.00,,,0.00,0.000000,,2013-05-16 04:53:00,
2013-05-15 23:02:00,45.0,37.0,-100.00,NNW,344,2.0,4.0,74,0.00,,,0.00,0.000000,,2013-05-16 05:02:00,
2013-05-15 23:12:00,45.0,37.0,-100.00,NNW,344,2.0,4.0,74,0.00,,,0.00,0.000000,,2013-05-16 05:12:00,
2013-05-15 23:42:00,44.0,37.0,-100.00,NW,320,3.0,5.0,75,0.00,,,0.00,0.000000,,2013-05-16 05:42:00,
2013-05-15 23:52:00,44.0,37.0,-100.00,NW,320,3.0,5.0,75,0.00,,,0.00,0.000000,,2013-05-16 05:52:00,